createdAt,value
2019-02-18T00:00:37.883Z,95212.59
2019-02-18T00:03:07.802Z,95209.14
2019-02-18T00:05:36.479Z,95209.05
2019-02-18T00:08:05.412Z,95212.34
2019-02-18T00:10:34.031Z,95207.53
2019-02-18T00:13:02.713Z,95212.41
2019-02-18T00:15:31.403Z,95212.67
2019-02-18T00:18:00.089Z,95204.28
2019-02-18T00:20:28.764Z,95214.86
2019-02-18T00:22:57.439Z,95207.39
2019-02-18T00:25:26.113Z,95209.05
2019-02-18T00:27:54.772Z,95208.31
2019-02-18T00:30:23.457Z,95210.98
2019-02-18T00:32:52.161Z,95201.51
2019-02-18T00:35:20.791Z,95207.63
2019-02-18T00:37:49.538Z,95200.27
2019-02-18T00:40:18.236Z,95200.59
2019-02-18T00:42:46.897Z,95200.42
2019-02-18T00:45:15.571Z,95197.64
2019-02-18T00:47:44.359Z,95192.11
2019-02-18T00:50:13.025Z,95187.25
2019-02-18T00:52:41.704Z,95185.05
2019-02-18T00:55:10.362Z,95177.58
2019-02-18T00:57:39.047Z,95176.14
2019-02-18T01:00:11.085Z,95177.59
2019-02-18T01:02:39.780Z,95177.98
2019-02-18T01:05:08.663Z,95173.28
2019-02-18T01:07:37.359Z,95171.37
2019-02-18T01:10:08.920Z,95165.20
2019-02-18T01:12:37.584Z,95161.84
2019-02-18T01:15:09.397Z,95171.41
2019-02-18T01:17:38.075Z,95164.91
2019-02-18T01:20:09.600Z,95170.44
2019-02-18T01:22:38.296Z,95140.16
2019-02-18T01:25:08.866Z,95154.66
2019-02-18T01:27:37.535Z,95160.27
2019-02-18T01:30:09.378Z,95157.17
2019-02-18T01:32:38.072Z,95156.25
2019-02-18T01:35:06.936Z,95147.59
2019-02-18T01:37:44.912Z,95148.37
2019-02-18T01:40:08.952Z,95145.34
2019-02-18T01:42:37.624Z,95152.09
2019-02-18T01:45:09.136Z,95146.30
2019-02-18T01:47:37.789Z,95149.30
2019-02-18T01:50:09.672Z,95143.88
2019-02-18T01:52:38.367Z,95148.14
2019-02-18T01:55:08.145Z,95142.20
2019-02-18T01:57:36.806Z,95137.17
2019-02-18T02:00:08.891Z,95142.59
2019-02-18T02:02:37.560Z,95137.02
2019-02-18T02:05:06.635Z,95137.75
2019-02-18T02:07:35.406Z,95133.05
2019-02-18T02:10:05.469Z,95134.53
2019-02-18T02:12:34.154Z,95134.95
2019-02-18T02:15:02.831Z,95130.94
2019-02-18T02:17:31.494Z,95131.98
2019-02-18T02:20:00.360Z,95133.08
2019-02-18T02:22:29.020Z,95137.59
2019-02-18T02:24:57.707Z,95139.40
2019-02-18T02:27:26.383Z,95128.45
2019-02-18T02:29:55.047Z,95136.01
2019-02-18T02:32:23.750Z,95131.35
2019-02-18T02:34:52.416Z,95131.68
2019-02-18T02:37:21.091Z,95129.00
2019-02-18T02:39:49.760Z,95125.04
2019-02-18T02:42:18.427Z,95128.31
2019-02-18T02:44:47.097Z,95134.67
2019-02-18T02:47:15.756Z,95129.91
2019-02-18T02:49:44.465Z,95115.63
2019-02-18T02:52:13.138Z,95129.88
2019-02-18T02:54:41.872Z,95129.57
2019-02-18T02:57:10.538Z,95131.95
2019-02-18T02:59:39.206Z,95122.83
2019-02-18T03:02:07.880Z,95130.45
2019-02-18T03:04:36.538Z,95125.39
2019-02-18T03:07:05.210Z,95118.55
2019-02-18T03:09:33.916Z,95127.59
2019-02-18T03:12:02.594Z,95124.59
2019-02-18T03:14:31.411Z,95131.11
2019-02-18T03:17:00.029Z,95129.83
2019-02-18T03:19:28.720Z,95126.23
2019-02-18T03:21:57.398Z,95130.73
2019-02-18T03:24:26.072Z,95142.41
2019-02-18T03:26:54.734Z,95138.63
2019-02-18T03:29:28.920Z,95139.08
2019-02-18T03:31:57.601Z,95137.59
2019-02-18T03:34:29.503Z,95139.16
2019-02-18T03:36:58.169Z,95137.70
2019-02-18T03:39:26.841Z,95133.00
2019-02-18T03:41:55.520Z,95132.83
2019-02-18T03:44:24.222Z,95135.15
2019-02-18T03:46:52.894Z,95135.35
2019-02-18T03:49:21.603Z,95132.67
2019-02-18T03:51:50.298Z,95134.42
2019-02-18T03:54:18.991Z,95136.75
2019-02-18T03:56:47.654Z,95135.23
2019-02-18T03:59:16.320Z,95131.33
2019-02-18T04:01:44.996Z,95135.31
2019-02-18T04:04:13.651Z,95131.35
2019-02-18T04:06:42.337Z,95113.97
2019-02-18T04:09:11.013Z,95137.98
2019-02-18T04:11:39.685Z,95138.13
2019-02-18T04:14:08.353Z,95136.96
2019-02-18T04:16:37.026Z,95136.42
2019-02-18T04:19:05.700Z,95134.38
2019-02-18T04:21:34.406Z,95134.14
2019-02-18T04:24:03.092Z,95126.05
2019-02-18T04:26:31.776Z,95124.45
2019-02-18T04:29:00.473Z,95131.78
2019-02-18T04:31:29.138Z,95133.69
2019-02-18T04:33:57.793Z,95137.59
2019-02-18T04:36:26.492Z,95140.77
2019-02-18T04:38:55.158Z,95141.45
2019-02-18T04:41:23.826Z,95141.70
2019-02-18T04:43:52.543Z,95142.17
2019-02-18T04:46:21.300Z,95143.66
2019-02-18T04:48:49.972Z,95146.46
2019-02-18T04:51:18.686Z,95152.09
2019-02-18T04:53:47.350Z,95155.84
2019-02-18T04:56:16.031Z,95154.28
2019-02-18T04:58:44.703Z,95162.58
2019-02-18T05:01:13.373Z,95164.46
2019-02-18T05:03:42.061Z,95157.96
2019-02-18T05:06:10.807Z,95163.73
2019-02-18T05:08:39.487Z,95161.56
2019-02-18T05:11:08.176Z,95159.13
2019-02-18T05:13:36.844Z,95161.15
2019-02-18T05:16:05.508Z,95169.11
2019-02-18T05:18:34.192Z,95176.35
2019-02-18T05:21:02.856Z,95166.05
2019-02-18T05:23:31.522Z,95169.95
2019-02-18T05:26:00.207Z,95170.36
2019-02-18T05:28:28.882Z,95167.28
2019-02-18T05:30:57.586Z,95164.06
2019-02-18T05:33:26.245Z,95170.53
2019-02-18T05:35:55.898Z,95171.53
2019-02-18T05:38:25.010Z,95171.56
2019-02-18T05:40:53.668Z,95171.23
2019-02-18T05:43:22.354Z,95171.80
2019-02-18T05:45:51.024Z,95178.02
2019-02-18T05:48:19.700Z,95181.56
2019-02-18T05:50:48.376Z,95184.16
2019-02-18T05:53:17.064Z,95184.97
2019-02-18T05:55:45.735Z,95186.52
2019-02-18T05:58:14.444Z,95189.94
2019-02-18T06:00:43.256Z,95191.47
2019-02-18T06:03:11.929Z,95190.33
2019-02-18T06:05:40.593Z,95197.52
2019-02-18T06:08:09.278Z,95190.22
2019-02-18T06:10:37.949Z,95187.30
2019-02-18T06:13:06.614Z,95191.47
2019-02-18T06:15:35.287Z,95196.53
2019-02-18T06:18:03.951Z,95187.65
2019-02-18T06:20:32.693Z,95182.94
2019-02-18T06:23:01.447Z,95190.49
2019-02-18T06:25:30.246Z,95198.81
2019-02-18T06:27:58.958Z,95195.42
2019-02-18T06:30:27.641Z,95199.45
2019-02-18T06:32:56.301Z,95206.26
2019-02-18T06:35:25.004Z,95204.05
2019-02-18T06:37:53.679Z,95198.84
2019-02-18T06:40:22.379Z,95205.48
2019-02-18T06:42:51.138Z,95198.13
2019-02-18T06:45:30.200Z,95208.95
2019-02-18T06:48:00.472Z,95212.30
2019-02-18T06:50:29.277Z,95203.80
2019-02-18T06:52:58.008Z,95210.96
2019-02-18T06:55:26.858Z,95207.22
2019-02-18T06:57:59.836Z,95211.34
2019-02-18T07:00:30.081Z,95218.80
2019-02-18T07:03:00.363Z,95215.06
2019-02-18T07:05:43.005Z,95216.44
2019-02-18T07:08:13.344Z,95219.10
2019-02-18T07:10:43.599Z,95219.27
2019-02-18T07:13:13.354Z,95218.58
2019-02-18T07:15:42.029Z,95218.00
2019-02-18T07:18:10.739Z,95223.81
2019-02-18T07:20:39.348Z,95224.88
2019-02-18T07:23:08.113Z,95220.38
2019-02-18T07:25:36.876Z,95224.90
2019-02-18T07:28:05.551Z,95223.64
2019-02-18T07:30:34.287Z,95219.77
2019-02-18T07:33:03.621Z,95216.74
2019-02-18T07:35:34.104Z,95219.37
2019-02-18T07:38:02.782Z,95215.99
2019-02-18T07:40:31.543Z,95219.16
2019-02-18T07:43:01.723Z,95215.72
2019-02-18T07:45:30.409Z,95203.18
2019-02-18T07:47:59.086Z,95220.48
2019-02-18T07:50:27.866Z,95220.30
2019-02-18T07:52:56.621Z,95212.45
2019-02-18T07:55:25.309Z,95210.16
2019-02-18T07:57:53.988Z,95208.27
2019-02-18T08:00:22.906Z,95216.42
2019-02-18T08:02:51.680Z,95214.67
2019-02-18T08:05:20.462Z,95218.00
2019-02-18T08:07:49.163Z,95219.59
2019-02-18T08:10:17.869Z,95214.13
2019-02-18T08:12:46.542Z,95217.56
2019-02-18T08:15:15.205Z,95215.29
2019-02-18T08:17:43.947Z,95210.80
2019-02-18T08:20:12.842Z,95211.86
2019-02-18T08:22:41.534Z,95220.14
2019-02-18T08:25:12.566Z,95214.22
2019-02-18T08:27:41.389Z,95214.28
2019-02-18T08:30:13.062Z,95214.42
2019-02-18T08:32:41.737Z,95213.28
2019-02-18T08:35:10.605Z,95215.16
2019-02-18T08:37:39.398Z,95209.55
2019-02-18T08:40:09.839Z,95204.34
2019-02-18T08:42:38.534Z,95204.89
2019-02-18T08:45:12.317Z,95205.72
2019-02-18T08:47:42.141Z,95205.59
2019-02-18T08:50:12.698Z,95202.01
2019-02-18T08:52:41.584Z,95199.50
2019-02-18T08:55:17.056Z,95201.18
2019-02-18T08:57:45.935Z,95202.23
2019-02-18T09:00:17.030Z,95198.46
2019-02-18T09:02:45.789Z,95196.81
2019-02-18T09:05:14.681Z,95197.25
2019-02-18T09:07:44.019Z,95198.90
2019-02-18T09:10:14.520Z,95197.56
2019-02-18T09:12:43.540Z,95198.43
2019-02-18T09:15:14.055Z,95197.97
2019-02-18T09:17:42.761Z,95197.48
2019-02-18T09:20:13.993Z,95203.77
2019-02-18T09:23:02.361Z,95200.86
2019-02-18T09:25:32.735Z,95199.80
2019-02-18T09:28:01.525Z,95203.22
2019-02-18T09:30:31.831Z,95190.05
2019-02-18T09:33:00.643Z,95194.73
2019-02-18T09:35:29.756Z,95191.53
2019-02-18T09:37:58.433Z,95188.63
2019-02-18T09:40:27.238Z,95189.16
2019-02-18T09:42:56.214Z,95178.00
2019-02-18T09:45:25.235Z,95171.34
2019-02-18T09:47:54.453Z,95179.03
2019-02-18T09:50:23.545Z,95179.45
2019-02-18T09:52:52.231Z,95169.16
2019-02-18T09:55:21.015Z,95166.33
2019-02-18T09:57:49.794Z,95168.19
2019-02-18T10:00:18.713Z,95168.66
2019-02-18T10:02:47.630Z,95160.09
2019-02-18T10:05:16.383Z,95162.18
2019-02-18T10:07:45.137Z,95156.72
2019-02-18T10:10:13.827Z,95149.78
2019-02-18T10:12:42.542Z,95144.26
2019-02-18T10:15:11.918Z,95150.52
2019-02-18T10:17:40.676Z,95149.91
2019-02-18T10:20:13.659Z,95139.45
2019-02-18T10:22:42.416Z,95142.08
2019-02-18T10:25:12.805Z,95137.64
2019-02-18T10:27:41.624Z,95134.78
2019-02-18T10:30:11.323Z,95131.55
2019-02-18T10:32:40.010Z,95126.88
2019-02-18T10:35:14.847Z,95126.57
2019-02-18T10:37:43.637Z,95118.08
2019-02-18T10:40:12.722Z,95118.35
2019-02-18T10:42:41.435Z,95110.48
2019-02-18T10:45:12.111Z,95109.33
2019-02-18T10:47:41.547Z,95103.31
2019-02-18T10:50:11.586Z,95096.52
2019-02-18T10:52:40.300Z,95097.22
2019-02-18T10:55:10.623Z,95096.23
2019-02-18T10:57:39.848Z,95082.98
2019-02-18T11:00:16.597Z,95083.45
2019-02-18T11:02:45.738Z,95072.05
2019-02-18T11:05:14.749Z,95066.00
2019-02-18T11:07:43.581Z,95063.84
2019-02-18T11:10:14.344Z,95061.13
2019-02-18T11:12:43.037Z,95056.89
2019-02-18T11:15:13.241Z,95054.82
2019-02-18T11:17:42.415Z,95054.54
2019-02-18T11:20:12.871Z,95051.17
2019-02-18T11:22:43.110Z,95050.19
2019-02-18T11:25:14.832Z,95041.42
2019-02-18T11:27:43.540Z,95038.18
2019-02-18T11:30:19.654Z,95034.45
2019-02-18T11:32:48.352Z,95035.36
2019-02-18T11:35:17.404Z,95037.72
2019-02-18T11:37:46.125Z,95038.94
2019-02-18T11:40:16.570Z,95032.17
2019-02-18T11:42:45.394Z,95021.47
2019-02-18T11:45:20.204Z,95021.34
2019-02-18T11:47:49.520Z,95017.02
2019-02-18T11:50:21.285Z,95013.02
2019-02-18T11:52:50.619Z,95010.92
2019-02-18T11:55:19.529Z,95008.95
2019-02-18T11:57:48.304Z,95000.02
2019-02-18T12:00:17.534Z,94992.42
2019-02-18T12:02:46.710Z,94986.57
2019-02-18T12:05:15.705Z,94986.56
2019-02-18T12:07:44.760Z,94986.12
2019-02-18T12:10:14.099Z,94976.71
2019-02-18T12:12:43.216Z,94975.91
2019-02-18T12:15:14.052Z,94976.38
2019-02-18T12:17:43.067Z,94970.02
2019-02-18T12:20:15.981Z,94965.24
2019-02-18T12:22:44.823Z,94967.09
2019-02-18T12:25:14.733Z,94938.86
2019-02-18T12:27:44.241Z,94959.50
2019-02-18T12:30:21.049Z,94960.95
2019-02-18T12:32:49.873Z,94958.97
2019-02-18T12:35:18.643Z,94947.27
2019-02-18T12:37:54.956Z,94946.98
2019-02-18T12:40:18.028Z,94945.55
2019-02-18T12:42:46.899Z,94942.99
2019-02-18T12:45:15.917Z,94872.53
2019-02-18T12:47:44.605Z,94935.20
2019-02-18T12:50:13.950Z,94931.83
2019-02-18T12:52:42.896Z,94934.56
2019-02-18T12:55:12.300Z,94930.00
2019-02-18T12:57:41.057Z,94926.83
2019-02-18T13:00:13.939Z,94927.45
2019-02-18T13:02:44.694Z,94917.91
2019-02-18T13:05:13.984Z,94928.38
2019-02-18T13:07:42.760Z,94922.48
2019-02-18T13:10:12.217Z,94920.99
2019-02-18T13:12:41.538Z,94919.70
2019-02-18T13:15:13.112Z,94914.41
2019-02-18T13:17:42.808Z,94913.34
2019-02-18T13:20:12.042Z,94915.54
2019-02-18T13:22:40.845Z,94918.79
2019-02-18T13:25:10.688Z,94905.42
2019-02-18T13:27:39.380Z,94914.50
2019-02-18T13:30:19.477Z,94907.33
2019-02-18T13:32:48.316Z,94903.14
2019-02-18T13:35:17.787Z,94903.39
2019-02-18T13:37:46.579Z,94902.75
2019-02-18T13:40:16.769Z,94897.67
2019-02-18T13:42:46.170Z,94894.72
2019-02-18T13:45:15.306Z,94891.66
2019-02-18T13:47:45.109Z,94898.09
2019-02-18T13:50:14.987Z,94885.44
2019-02-18T13:52:43.770Z,94888.31
2019-02-18T13:55:13.759Z,94887.88
2019-02-18T13:57:42.979Z,94890.44
2019-02-18T14:00:16.373Z,94888.56
2019-02-18T14:02:45.145Z,94888.89
2019-02-18T14:05:14.251Z,94891.04
2019-02-18T14:07:42.942Z,94884.61
2019-02-18T14:10:11.889Z,94888.31
2019-02-18T14:12:40.841Z,94884.89
2019-02-18T14:15:12.267Z,94883.91
2019-02-18T14:17:40.964Z,94875.34
2019-02-18T14:20:11.996Z,94880.94
2019-02-18T14:22:40.959Z,94877.88
2019-02-18T14:25:10.952Z,94876.88
2019-02-18T14:27:39.651Z,94875.16
2019-02-18T14:30:14.761Z,94879.98
2019-02-18T14:32:43.734Z,94879.25
2019-02-18T14:35:12.582Z,94873.53
2019-02-18T14:37:41.370Z,94872.60
2019-02-18T14:40:12.743Z,94867.66
2019-02-18T14:42:41.410Z,94872.63
2019-02-18T14:45:10.899Z,94867.30
2019-02-18T14:47:39.590Z,94865.98
2019-02-18T14:50:09.653Z,94869.83
2019-02-18T14:52:38.389Z,94875.99
2019-02-18T14:55:09.112Z,94869.80
2019-02-18T14:57:37.868Z,94865.98
2019-02-18T15:00:21.348Z,94875.22
2019-02-18T15:02:51.455Z,94874.42
2019-02-18T15:05:20.389Z,94869.80
2019-02-18T15:07:49.278Z,94866.95
2019-02-18T15:10:18.202Z,94866.07
2019-02-18T15:12:46.904Z,94873.44
2019-02-18T15:15:15.976Z,94871.13
2019-02-18T15:17:44.763Z,94869.61
2019-02-18T15:20:13.489Z,94871.59
2019-02-18T15:22:42.246Z,94877.94
2019-02-18T15:25:11.748Z,94869.88
2019-02-18T15:27:40.436Z,94867.48
2019-02-18T15:30:12.613Z,94875.53
2019-02-18T15:32:41.393Z,94873.66
2019-02-18T15:35:10.237Z,94870.22
2019-02-18T15:37:38.976Z,94827.06
2019-02-18T15:40:09.969Z,94873.24
2019-02-18T15:42:42.148Z,94876.62
2019-02-18T15:45:10.098Z,94874.64
2019-02-18T15:47:39.239Z,94874.45
2019-02-18T15:50:12.936Z,94881.41
2019-02-18T15:52:41.710Z,94875.47
2019-02-18T15:55:11.408Z,94881.19
2019-02-18T15:57:40.189Z,94879.46
2019-02-18T16:00:21.072Z,94880.44
2019-02-18T16:02:50.272Z,94880.10
2019-02-18T16:05:19.501Z,94877.31
2019-02-18T16:07:48.278Z,94881.84
2019-02-18T16:10:16.993Z,94874.07
2019-02-18T16:12:50.735Z,94879.45
2019-02-18T16:15:16.419Z,94874.02
2019-02-18T16:17:45.672Z,94877.61
2019-02-18T16:20:14.857Z,94879.16
2019-02-18T16:22:43.660Z,94881.68
2019-02-18T16:25:15.260Z,94876.53
2019-02-18T16:27:43.934Z,94879.78
2019-02-18T16:30:14.708Z,94877.73
2019-02-18T16:32:43.748Z,94886.61
2019-02-18T16:35:12.549Z,94886.50
2019-02-18T16:37:41.904Z,94883.68
2019-02-18T16:40:15.944Z,94894.25
2019-02-18T16:42:44.760Z,94898.83
2019-02-18T16:45:15.142Z,94896.22
2019-02-18T16:47:43.908Z,94895.46
2019-02-18T16:50:12.828Z,94903.48
2019-02-18T16:52:41.497Z,94897.67
2019-02-18T16:55:12.262Z,94862.15
2019-02-18T16:57:40.950Z,94905.17
2019-02-18T17:00:22.190Z,94908.09
2019-02-18T17:02:51.136Z,94917.07
2019-02-18T17:05:20.157Z,94912.53
2019-02-18T17:07:48.830Z,94916.23
2019-02-18T17:10:17.508Z,94917.70
2019-02-18T17:12:46.558Z,94918.91
2019-02-18T17:15:15.234Z,94925.02
2019-02-18T17:17:43.943Z,94922.50
2019-02-18T17:20:12.600Z,94922.45
2019-02-18T17:22:41.457Z,94928.76
2019-02-18T17:25:11.930Z,94929.72
2019-02-18T17:27:40.610Z,94927.65
2019-02-18T17:30:12.212Z,94934.02
2019-02-18T17:32:41.008Z,94938.17
2019-02-18T17:35:14.353Z,94932.39
2019-02-18T17:37:43.032Z,94938.14
2019-02-18T17:40:13.007Z,94938.34
2019-02-18T17:42:42.103Z,94940.94
2019-02-18T17:45:16.205Z,94936.20
2019-02-18T17:47:44.873Z,94940.63
2019-02-18T17:50:15.518Z,94938.70
2019-02-18T17:52:44.258Z,94931.97
2019-02-18T17:55:15.599Z,94945.09
2019-02-18T17:57:44.271Z,94945.86
2019-02-18T18:00:15.689Z,94946.91
2019-02-18T18:02:44.373Z,94946.35
2019-02-18T18:05:13.366Z,94951.17
2019-02-18T18:07:42.107Z,94955.72
2019-02-18T18:10:12.476Z,94950.17
2019-02-18T18:12:41.167Z,94912.77
2019-02-18T18:15:12.481Z,94947.00
2019-02-18T18:17:41.204Z,94959.05
2019-02-18T18:20:11.970Z,94950.59
2019-02-18T18:22:41.308Z,94955.41
2019-02-18T18:25:12.516Z,94953.94
2019-02-18T18:27:41.206Z,94954.07
2019-02-18T18:30:12.615Z,94961.41
2019-02-18T18:32:41.323Z,94962.92
2019-02-18T18:35:11.775Z,94959.42
2019-02-18T18:37:40.490Z,94952.94
2019-02-18T18:40:14.701Z,94957.92
2019-02-18T18:42:43.406Z,94955.05
2019-02-18T18:45:15.615Z,94960.22
2019-02-18T18:47:44.483Z,94958.42
2019-02-18T18:50:15.843Z,94956.78
2019-02-18T18:52:44.882Z,94959.77
2019-02-18T18:55:13.552Z,94958.29
2019-02-18T18:57:42.228Z,94963.53
2019-02-18T19:00:21.694Z,94960.70
2019-02-18T19:02:50.362Z,94961.45
2019-02-18T19:05:19.414Z,94964.00
2019-02-18T19:07:48.117Z,94966.40
2019-02-18T19:10:17.467Z,94964.30
2019-02-18T19:12:46.138Z,94949.72
2019-02-18T19:15:17.095Z,94974.38
2019-02-18T19:17:45.786Z,94971.82
2019-02-18T19:20:14.815Z,94979.93
2019-02-18T19:22:43.502Z,94980.80
2019-02-18T19:25:12.884Z,94976.14
2019-02-18T19:27:41.643Z,94957.64
2019-02-18T19:30:13.285Z,94977.02
2019-02-18T19:32:41.976Z,94979.11
2019-02-18T19:35:10.669Z,94979.25
2019-02-18T19:37:39.358Z,94983.44
2019-02-18T19:40:10.741Z,94987.92
2019-02-18T19:42:39.449Z,94986.38
2019-02-18T19:45:17.015Z,94980.95
2019-02-18T19:47:45.721Z,94991.14
2019-02-18T19:50:14.392Z,94990.19
2019-02-18T19:52:43.070Z,94987.70
2019-02-18T19:55:13.038Z,94989.59
2019-02-18T19:57:41.703Z,94968.89
2019-02-18T20:00:13.280Z,94984.46
2019-02-18T20:02:41.951Z,94990.02
2019-02-18T20:05:10.920Z,94989.28
2019-02-18T20:07:39.601Z,94990.47
2019-02-18T20:10:11.037Z,94987.94
2019-02-18T20:12:39.827Z,94982.85
2019-02-18T20:15:11.255Z,94987.67
2019-02-18T20:17:39.918Z,94987.09
2019-02-18T20:20:16.551Z,94986.91
2019-02-18T20:22:45.223Z,94983.85
2019-02-18T20:25:14.107Z,94988.34
2019-02-18T20:27:42.750Z,94981.69
2019-02-18T20:30:16.326Z,94987.95
2019-02-18T20:32:44.988Z,94986.77
2019-02-18T20:35:13.766Z,94985.13
2019-02-18T20:37:42.439Z,94990.64
2019-02-18T20:40:11.944Z,94990.57
2019-02-18T20:42:42.456Z,94989.66
2019-02-18T20:45:12.444Z,94987.70
2019-02-18T20:47:41.422Z,94984.17
2019-02-18T20:50:14.534Z,94983.78
2019-02-18T20:52:43.199Z,94987.83
2019-02-18T20:55:13.581Z,94991.14
2019-02-18T20:57:43.336Z,94983.00
2019-02-18T21:00:22.661Z,94982.06
2019-02-18T21:02:51.325Z,94990.02
2019-02-18T21:05:20.175Z,94991.36
2019-02-18T21:07:49.234Z,94992.61
2019-02-18T21:10:24.285Z,94984.45
2019-02-18T21:12:53.070Z,94986.59
2019-02-18T21:15:21.733Z,94991.99
2019-02-18T21:17:50.399Z,94993.61
2019-02-18T21:20:19.077Z,94994.27
2019-02-18T21:22:48.128Z,94991.88
2019-02-18T21:25:16.802Z,94994.73
2019-02-18T21:27:45.473Z,94993.95
2019-02-18T21:30:15.446Z,94994.96
2019-02-18T21:32:44.107Z,94997.00
2019-02-18T21:35:12.785Z,95000.64
2019-02-18T21:37:42.011Z,95003.12
2019-02-18T21:40:11.841Z,95003.12
2019-02-18T21:42:40.528Z,94995.14
2019-02-18T21:45:11.987Z,94991.48
2019-02-18T21:47:40.693Z,94997.62
2019-02-18T21:50:10.663Z,95002.62
2019-02-18T21:52:39.618Z,94996.95
2019-02-18T21:55:10.186Z,94997.44
2019-02-18T21:57:39.216Z,95005.39
2019-02-18T22:00:21.130Z,95004.27
2019-02-18T22:02:50.213Z,95003.59
2019-02-18T22:05:19.361Z,95005.73
2019-02-18T22:07:48.510Z,94989.73
2019-02-18T22:10:17.292Z,95007.73
2019-02-18T22:12:45.956Z,95008.56
2019-02-18T22:15:15.679Z,95007.11
2019-02-18T22:17:44.585Z,95013.16
2019-02-18T22:20:14.459Z,95011.67
2019-02-18T22:22:43.149Z,95009.83
2019-02-18T22:25:12.919Z,95002.80
2019-02-18T22:27:41.698Z,95008.75
2019-02-18T22:30:15.752Z,95010.67
2019-02-18T22:32:44.514Z,95016.22
2019-02-18T22:35:13.598Z,95013.15
2019-02-18T22:37:42.502Z,95014.22
2019-02-18T22:40:12.679Z,95014.52
2019-02-18T22:42:41.651Z,95009.00
2019-02-18T22:45:11.853Z,95012.50
2019-02-18T22:47:40.584Z,95016.94
2019-02-18T22:50:11.002Z,95014.94
2019-02-18T22:52:39.752Z,95015.69
2019-02-18T22:55:09.969Z,95022.22
2019-02-18T22:57:38.723Z,95021.25
2019-02-18T23:00:10.329Z,95013.91
2019-02-18T23:02:40.408Z,95019.94
2019-02-18T23:05:09.088Z,95015.97
2019-02-18T23:07:37.812Z,95017.81
2019-02-18T23:10:07.255Z,95021.41
2019-02-18T23:12:35.939Z,95020.17
2019-02-18T23:15:05.716Z,95019.84
2019-02-18T23:17:34.405Z,95022.48
2019-02-18T23:20:03.070Z,95019.46
2019-02-18T23:22:32.065Z,95023.19
2019-02-18T23:25:01.538Z,95020.87
2019-02-18T23:27:30.318Z,95018.06
2019-02-18T23:29:59.035Z,95022.63
2019-02-18T23:32:27.730Z,95020.78
2019-02-18T23:34:56.563Z,95022.77
2019-02-18T23:37:25.842Z,95021.66
2019-02-18T23:39:54.528Z,95020.23
2019-02-18T23:42:23.219Z,95016.56
2019-02-18T23:44:58.995Z,95019.32
2019-02-18T23:47:22.342Z,95017.02
2019-02-18T23:49:51.075Z,95007.22
2019-02-18T23:52:19.745Z,95003.11
2019-02-18T23:54:48.445Z,95000.48
2019-02-18T23:57:17.142Z,95003.12
2019-02-18T23:59:45.807Z,95004.15
